createdAt,value
2017-11-25T00:02:14.553Z,14.97
2017-11-25T00:04:42.012Z,17.07
2017-11-25T00:07:09.500Z,16.40
2017-11-25T00:09:36.911Z,17.10
2017-11-25T00:12:04.420Z,17.67
2017-11-25T00:14:32.675Z,17.40
2017-11-25T00:17:00.223Z,16.97
2017-11-25T00:19:27.736Z,17.17
2017-11-25T00:21:55.969Z,18.47
2017-11-25T00:24:23.469Z,16.83
2017-11-25T00:26:51.702Z,17.20
2017-11-25T00:29:19.234Z,19.00
2017-11-25T00:31:46.707Z,17.00
2017-11-25T00:34:14.164Z,17.67
2017-11-25T00:36:41.655Z,19.10
2017-11-25T00:39:09.186Z,17.87
2017-11-25T00:41:37.452Z,17.93
2017-11-25T00:44:05.652Z,17.73
2017-11-25T00:46:33.113Z,16.50
2017-11-25T00:49:00.613Z,17.93
2017-11-25T00:51:28.132Z,16.93
2017-11-25T00:53:55.626Z,17.60
2017-11-25T00:56:23.107Z,18.43
2017-11-25T00:58:50.594Z,18.17
2017-11-25T01:01:18.142Z,17.27
2017-11-25T01:03:45.611Z,18.70
2017-11-25T01:06:13.104Z,16.97
2017-11-25T01:08:40.558Z,18.80
2017-11-25T01:11:08.097Z,17.80
2017-11-25T01:13:35.589Z,17.87
2017-11-25T01:16:03.076Z,16.00
2017-11-25T01:18:30.595Z,17.07
2017-11-25T01:20:58.832Z,18.63
2017-11-25T01:23:26.287Z,18.30
2017-11-25T01:25:53.764Z,17.33
2017-11-25T01:28:21.319Z,18.00
2017-11-25T01:30:49.506Z,17.87
2017-11-25T01:33:16.991Z,18.57
2017-11-25T01:35:44.448Z,19.57
2017-11-25T01:38:11.944Z,18.43
2017-11-25T01:40:40.194Z,21.30
2017-11-25T01:43:07.662Z,18.23
2017-11-25T01:45:35.162Z,19.57
2017-11-25T01:48:02.654Z,20.70
2017-11-25T01:50:30.143Z,19.97
2017-11-25T01:52:57.599Z,22.40
2017-11-25T01:55:25.103Z,20.40
2017-11-25T01:57:53.382Z,21.47
2017-11-25T02:00:21.602Z,20.57
2017-11-25T02:02:49.046Z,20.03
2017-11-25T02:05:16.525Z,21.13
2017-11-25T02:07:43.983Z,18.80
2017-11-25T02:10:11.514Z,22.20
2017-11-25T02:12:39.045Z,21.47
2017-11-25T02:15:06.538Z,20.80
2017-11-25T02:17:34.799Z,20.93
2017-11-25T02:20:02.288Z,21.03
2017-11-25T02:22:30.517Z,21.77
2017-11-25T02:24:58.005Z,20.00
2017-11-25T02:27:26.229Z,19.93
2017-11-25T02:29:53.778Z,22.70
2017-11-25T02:32:21.201Z,19.30
2017-11-25T02:34:48.718Z,19.33
2017-11-25T02:37:16.203Z,18.47
2017-11-25T02:39:43.735Z,17.13
2017-11-25T02:42:11.207Z,20.27
2017-11-25T02:44:38.706Z,20.10
2017-11-25T02:47:06.207Z,20.43
2017-11-25T02:49:34.419Z,17.20
2017-11-25T02:52:02.264Z,18.50
2017-11-25T02:54:29.717Z,15.70
2017-11-25T02:56:57.959Z,16.20
2017-11-25T02:59:25.449Z,16.60
2017-11-25T03:01:53.696Z,16.90
2017-11-25T03:04:21.204Z,17.97
2017-11-25T03:06:49.454Z,18.40
2017-11-25T03:09:16.934Z,16.40
2017-11-25T03:11:45.216Z,15.43
2017-11-25T03:14:12.685Z,14.93
2017-11-25T03:16:40.911Z,14.77
2017-11-25T03:19:08.433Z,14.60
2017-11-25T03:21:36.661Z,14.97
2017-11-25T03:24:04.212Z,13.33
2017-11-25T03:26:31.608Z,12.20
2017-11-25T03:28:59.148Z,11.10
2017-11-25T03:31:26.629Z,7.93
2017-11-25T03:33:54.068Z,7.97
2017-11-25T03:36:21.543Z,5.27
2017-11-25T03:38:49.020Z,5.00
2017-11-25T03:41:16.499Z,6.90
2017-11-25T03:43:44.002Z,5.73
2017-11-25T03:46:11.553Z,5.00
2017-11-25T03:48:39.058Z,6.30
2017-11-25T03:51:06.582Z,7.10
2017-11-25T03:53:34.025Z,8.87
2017-11-25T03:56:02.272Z,11.70
2017-11-25T03:58:29.769Z,13.40
2017-11-25T04:00:58.014Z,12.87
2017-11-25T04:03:25.516Z,14.10
2017-11-25T04:05:53.763Z,13.73
2017-11-25T04:08:21.261Z,11.60
2017-11-25T04:10:49.472Z,9.20
2017-11-25T04:13:16.944Z,8.57
2017-11-25T04:15:44.444Z,9.07
2017-11-25T04:18:11.957Z,8.00
2017-11-25T04:20:39.431Z,7.30
2017-11-25T04:23:06.901Z,6.20
2017-11-25T04:25:34.343Z,5.30
2017-11-25T04:28:01.831Z,5.47
2017-11-25T04:30:29.348Z,5.00
2017-11-25T04:32:57.625Z,4.90
2017-11-25T04:35:25.100Z,4.10
2017-11-25T04:37:52.628Z,4.60
2017-11-25T04:40:20.098Z,2.83
2017-11-25T04:42:48.376Z,3.60
2017-11-25T04:45:16.693Z,3.70
2017-11-25T04:47:44.192Z,3.97
2017-11-25T04:50:11.664Z,3.10
2017-11-25T04:52:39.140Z,3.17
2017-11-25T04:55:06.666Z,3.20
2017-11-25T04:57:34.167Z,4.17
2017-11-25T05:00:01.665Z,2.70
2017-11-25T05:02:29.110Z,4.20
2017-11-25T05:04:57.361Z,3.80
2017-11-25T05:07:24.821Z,3.47
2017-11-25T05:09:52.263Z,2.50
2017-11-25T05:12:19.751Z,3.37
2017-11-25T05:14:47.236Z,3.43
2017-11-25T05:17:15.493Z,3.87
2017-11-25T05:19:43.006Z,3.80
2017-11-25T05:22:10.459Z,3.30
2017-11-25T05:24:37.940Z,2.90
2017-11-25T05:27:05.421Z,4.40
2017-11-25T05:29:32.925Z,3.07
2017-11-25T05:32:00.388Z,4.33
2017-11-25T05:34:28.692Z,4.20
2017-11-25T05:36:56.914Z,3.60
2017-11-25T05:39:24.369Z,4.20
2017-11-25T05:41:51.853Z,4.10
2017-11-25T05:44:19.342Z,4.00
2017-11-25T05:46:47.561Z,4.43
2017-11-25T05:49:15.066Z,4.23
2017-11-25T05:51:42.541Z,4.93
2017-11-25T05:54:10.031Z,3.63
2017-11-25T05:56:37.478Z,4.70
2017-11-25T05:59:05.768Z,3.57
2017-11-25T06:01:33.243Z,5.03
2017-11-25T06:04:00.679Z,4.20
2017-11-25T06:06:28.905Z,4.00
2017-11-25T06:08:56.373Z,5.37
2017-11-25T06:11:23.987Z,5.30
2017-11-25T06:13:52.199Z,6.53
2017-11-25T06:16:19.676Z,6.87
2017-11-25T06:18:47.156Z,6.10
2017-11-25T06:21:14.612Z,4.90
2017-11-25T06:23:42.096Z,4.80
2017-11-25T06:26:09.671Z,5.77
2017-11-25T06:28:37.118Z,6.73
2017-11-25T06:31:04.571Z,5.47
2017-11-25T06:33:32.033Z,5.70
2017-11-25T06:35:59.665Z,6.43
2017-11-25T06:38:27.093Z,6.13
2017-11-25T06:40:55.330Z,5.63
2017-11-25T06:43:22.800Z,7.43
2017-11-25T06:45:50.264Z,6.60
2017-11-25T06:48:17.728Z,6.00
2017-11-25T06:50:45.221Z,5.80
2017-11-25T06:53:13.618Z,5.37
2017-11-25T06:55:41.828Z,6.03
2017-11-25T06:58:09.294Z,6.77
2017-11-25T07:00:36.777Z,6.00
2017-11-25T07:03:04.223Z,5.87
2017-11-25T07:05:31.762Z,6.00
2017-11-25T07:07:59.185Z,6.40
2017-11-25T07:10:27.448Z,6.53
2017-11-25T07:12:54.895Z,8.10
2017-11-25T07:15:22.343Z,8.80
2017-11-25T07:17:49.845Z,9.40
2017-11-25T07:20:17.308Z,10.03
2017-11-25T07:22:44.800Z,10.17
2017-11-25T07:25:13.078Z,10.07
2017-11-25T07:27:41.277Z,12.20
2017-11-25T07:30:08.991Z,10.90
2017-11-25T07:32:36.428Z,11.57
2017-11-25T07:35:03.924Z,12.87
2017-11-25T07:37:31.481Z,13.60
2017-11-25T07:39:58.995Z,12.50
2017-11-25T07:42:26.603Z,14.47
2017-11-25T07:44:54.160Z,15.47
2017-11-25T07:47:21.852Z,13.07
2017-11-25T07:49:49.393Z,12.20
2017-11-25T07:52:16.846Z,10.63
2017-11-25T07:54:44.365Z,9.47
2017-11-25T07:57:12.834Z,11.10
2017-11-25T07:59:40.294Z,13.10
2017-11-25T08:02:08.513Z,10.50
2017-11-25T08:04:36.019Z,10.10
2017-11-25T08:07:03.515Z,8.97
2017-11-25T08:09:31.758Z,9.93
2017-11-25T08:11:59.209Z,9.63
2017-11-25T08:14:26.681Z,8.60
2017-11-25T08:16:54.163Z,9.10
2017-11-25T08:19:21.670Z,9.13
2017-11-25T08:21:49.082Z,9.17
2017-11-25T08:24:16.624Z,8.57
2017-11-25T08:26:44.902Z,7.93
2017-11-25T08:29:13.070Z,8.60
2017-11-25T08:31:40.609Z,9.80
2017-11-25T08:34:08.073Z,9.90
2017-11-25T08:36:35.551Z,9.37
2017-11-25T08:39:03.022Z,8.43
2017-11-25T08:41:30.518Z,8.00
2017-11-25T08:43:58.013Z,8.50
2017-11-25T08:46:26.392Z,8.20
2017-11-25T08:48:53.843Z,7.77
2017-11-25T08:51:22.055Z,8.60
2017-11-25T08:53:49.594Z,9.00
2017-11-25T08:56:16.984Z,8.47
2017-11-25T08:58:45.286Z,8.93
2017-11-25T09:01:12.717Z,9.50
2017-11-25T09:03:40.196Z,10.20
2017-11-25T09:06:07.696Z,11.07
2017-11-25T09:08:35.229Z,12.90
2017-11-25T09:11:02.700Z,12.13
2017-11-25T09:13:30.189Z,10.13
2017-11-25T09:15:57.637Z,9.97
2017-11-25T09:18:25.314Z,8.73
2017-11-25T09:20:52.748Z,7.90
2017-11-25T09:23:20.245Z,8.27
2017-11-25T09:25:47.698Z,8.90
2017-11-25T09:28:15.212Z,9.17
2017-11-25T09:30:42.694Z,10.20
2017-11-25T09:33:10.165Z,8.90
2017-11-25T09:35:37.642Z,8.20
2017-11-25T09:38:05.117Z,7.30
2017-11-25T09:40:32.589Z,7.50
2017-11-25T09:43:00.110Z,6.90
2017-11-25T09:45:27.610Z,8.87
2017-11-25T09:47:55.088Z,7.80
2017-11-25T09:50:23.403Z,7.43
2017-11-25T09:52:50.840Z,7.27
2017-11-25T09:55:19.162Z,7.27
2017-11-25T09:57:46.665Z,8.30
2017-11-25T10:00:14.195Z,6.93
2017-11-25T10:02:41.653Z,6.73
2017-11-25T10:05:09.162Z,5.80
2017-11-25T10:07:36.563Z,6.00
2017-11-25T10:10:04.091Z,6.97
2017-11-25T10:12:32.336Z,6.00
2017-11-25T10:14:59.863Z,7.17
2017-11-25T10:17:27.678Z,6.60
2017-11-25T10:19:55.877Z,6.97
2017-11-25T10:22:23.377Z,6.67
2017-11-25T10:24:51.566Z,7.10
2017-11-25T10:27:19.090Z,7.17
2017-11-25T10:29:47.499Z,7.63
2017-11-25T10:32:14.944Z,6.27
2017-11-25T10:34:43.368Z,6.90
2017-11-25T10:37:10.792Z,7.10
2017-11-25T10:39:38.502Z,7.83
2017-11-25T10:42:06.724Z,6.63
2017-11-25T10:44:35.485Z,7.10
2017-11-25T10:47:03.014Z,6.57
2017-11-25T10:49:30.500Z,6.67
2017-11-25T10:51:57.979Z,7.07
2017-11-25T10:54:25.887Z,7.00
2017-11-25T10:56:54.128Z,7.00
2017-11-25T10:59:21.598Z,6.90
2017-11-25T11:01:49.082Z,7.43
2017-11-25T11:04:17.347Z,6.37
2017-11-25T11:06:44.830Z,6.73
2017-11-25T11:09:13.100Z,7.07
2017-11-25T11:11:40.539Z,6.90
2017-11-25T11:14:08.014Z,6.47
2017-11-25T11:16:36.288Z,6.57
2017-11-25T11:19:03.774Z,6.70
2017-11-25T11:21:31.241Z,6.10
2017-11-25T11:23:59.485Z,6.50
2017-11-25T11:26:27.069Z,6.70
2017-11-25T11:28:54.533Z,5.97
2017-11-25T11:31:22.018Z,5.90
2017-11-25T11:33:50.277Z,5.70
2017-11-25T11:36:17.757Z,5.80
2017-11-25T11:38:46.046Z,6.60
2017-11-25T11:41:14.394Z,6.37
2017-11-25T11:43:41.938Z,7.60
2017-11-25T11:46:09.377Z,6.30
2017-11-25T11:48:36.943Z,7.43
2017-11-25T11:51:04.405Z,7.90
2017-11-25T11:53:31.910Z,6.80
2017-11-25T11:55:59.635Z,6.67
2017-11-25T11:58:27.301Z,6.63
2017-11-25T12:00:54.778Z,6.67
2017-11-25T12:03:22.306Z,5.93
2017-11-25T12:05:50.558Z,7.20
2017-11-25T12:08:18.056Z,6.30
2017-11-25T12:10:45.551Z,6.33
2017-11-25T12:13:13.001Z,7.10
2017-11-25T12:15:40.508Z,6.33
2017-11-25T12:18:07.990Z,6.17
2017-11-25T12:20:36.283Z,7.00
2017-11-25T12:23:04.628Z,7.20
2017-11-25T12:25:32.062Z,5.70
2017-11-25T12:27:59.574Z,6.23
2017-11-25T12:30:27.141Z,6.60
2017-11-25T12:32:54.624Z,5.30
2017-11-25T12:35:22.040Z,5.60
2017-11-25T12:37:49.550Z,5.43
2017-11-25T12:40:17.004Z,5.73
2017-11-25T12:42:45.290Z,4.83
2017-11-25T12:45:12.775Z,5.50
2017-11-25T12:47:40.986Z,4.70
2017-11-25T12:50:08.516Z,5.70
2017-11-25T12:52:36.773Z,5.43
2017-11-25T12:55:04.294Z,6.07
2017-11-25T12:57:31.720Z,4.40
2017-11-25T12:59:59.166Z,5.20
2017-11-25T13:02:27.590Z,4.40
2017-11-25T13:04:55.085Z,4.50
2017-11-25T13:07:22.630Z,3.90
2017-11-25T13:09:50.024Z,4.80
2017-11-25T13:12:18.279Z,5.00
2017-11-25T13:14:45.804Z,4.87
2017-11-25T13:17:13.283Z,4.40
2017-11-25T13:19:40.771Z,5.37
2017-11-25T13:22:08.257Z,5.20
2017-11-25T13:24:36.527Z,4.40
2017-11-25T13:27:05.328Z,5.03
2017-11-25T13:29:33.549Z,4.90
2017-11-25T13:32:01.037Z,4.83
2017-11-25T13:34:28.532Z,3.17
2017-11-25T13:36:55.986Z,3.93
2017-11-25T13:39:24.349Z,4.80
2017-11-25T13:41:51.810Z,5.03
2017-11-25T13:44:19.277Z,4.77
2017-11-25T13:46:46.766Z,4.60
2017-11-25T13:49:14.991Z,4.07
2017-11-25T13:51:42.513Z,4.67
2017-11-25T13:54:09.987Z,5.13
2017-11-25T13:56:38.212Z,5.20
2017-11-25T13:59:05.922Z,5.03
2017-11-25T14:01:33.349Z,6.27
2017-11-25T14:04:00.840Z,5.37
2017-11-25T14:06:29.238Z,4.50
2017-11-25T14:08:57.518Z,5.60
2017-11-25T14:11:24.967Z,5.13
2017-11-25T14:13:53.247Z,5.03
2017-11-25T14:16:20.691Z,5.60
2017-11-25T14:18:48.194Z,6.00
2017-11-25T14:21:15.642Z,6.40
2017-11-25T14:23:43.913Z,5.80
2017-11-25T14:26:11.333Z,6.33
2017-11-25T14:28:38.880Z,5.97
2017-11-25T14:31:06.353Z,6.07
2017-11-25T14:33:33.848Z,6.03
2017-11-25T14:36:01.377Z,6.53
2017-11-25T14:38:28.887Z,5.97
2017-11-25T14:40:57.122Z,5.90
2017-11-25T14:43:24.605Z,6.70
2017-11-25T14:45:52.120Z,7.90
2017-11-25T14:48:19.569Z,7.50
2017-11-25T14:50:47.080Z,6.80
2017-11-25T14:53:14.574Z,8.00
2017-11-25T14:55:42.367Z,5.90
2017-11-25T14:58:09.935Z,6.70
2017-11-25T15:00:37.444Z,5.67
2017-11-25T15:03:04.960Z,6.40
2017-11-25T15:05:32.463Z,7.40
2017-11-25T15:07:59.907Z,6.73
2017-11-25T15:10:27.386Z,6.47
2017-11-25T15:12:54.832Z,5.43
2017-11-25T15:15:22.335Z,6.07
2017-11-25T15:17:53.212Z,5.80
2017-11-25T15:20:21.560Z,5.50
2017-11-25T15:22:49.006Z,5.63
2017-11-25T15:25:16.503Z,5.00
2017-11-25T15:27:43.969Z,5.50
2017-11-25T15:30:12.231Z,4.80
2017-11-25T15:32:39.712Z,6.80
2017-11-25T15:35:07.309Z,6.73
2017-11-25T15:37:34.972Z,6.30
2017-11-25T15:40:02.530Z,7.17
2017-11-25T15:42:30.004Z,6.10
2017-11-25T15:44:57.544Z,5.57
2017-11-25T15:47:25.929Z,5.10
2017-11-25T15:49:53.404Z,6.10
2017-11-25T15:52:20.901Z,6.40
2017-11-25T15:54:48.416Z,6.30
2017-11-25T15:57:15.885Z,5.53
2017-11-25T15:59:44.164Z,5.90
2017-11-25T16:02:11.691Z,5.77
2017-11-25T16:04:39.144Z,6.07
2017-11-25T16:07:07.515Z,6.00
2017-11-25T16:09:34.987Z,7.47
2017-11-25T16:12:02.479Z,5.70
2017-11-25T16:14:29.926Z,5.67
2017-11-25T16:16:57.432Z,5.13
2017-11-25T16:19:25.004Z,6.53
2017-11-25T16:21:52.487Z,5.50
2017-11-25T16:24:20.904Z,5.63
2017-11-25T16:26:48.438Z,6.23
2017-11-25T16:29:15.958Z,6.10
2017-11-25T16:31:43.561Z,6.17
2017-11-25T16:34:11.764Z,6.10
2017-11-25T16:36:39.255Z,6.43
2017-11-25T16:39:06.877Z,7.30
2017-11-25T16:41:35.170Z,8.10
2017-11-25T16:44:02.575Z,6.80
2017-11-25T16:46:31.059Z,8.03
2017-11-25T16:48:58.525Z,8.13
2017-11-25T16:51:25.995Z,7.00
2017-11-25T16:53:53.507Z,7.43
2017-11-25T16:56:21.020Z,8.47
2017-11-25T16:58:48.486Z,8.07
2017-11-25T17:01:16.080Z,7.57
2017-11-25T17:03:43.493Z,9.10
2017-11-25T17:06:11.054Z,8.90
2017-11-25T17:08:38.503Z,9.60
2017-11-25T17:11:06.030Z,7.67
2017-11-25T17:13:33.450Z,9.53
2017-11-25T17:16:00.936Z,8.53
2017-11-25T17:18:28.448Z,10.43
2017-11-25T17:20:56.659Z,8.03
2017-11-25T17:23:24.119Z,9.80
2017-11-25T17:25:51.655Z,8.70
2017-11-25T17:28:19.916Z,6.00
2017-11-25T17:30:48.352Z,5.20
2017-11-25T17:33:15.852Z,4.07
2017-11-25T17:35:44.080Z,3.40
2017-11-25T17:38:11.564Z,4.10
2017-11-25T17:40:39.083Z,4.67
2017-11-25T17:43:06.514Z,4.17
2017-11-25T17:45:34.027Z,4.17
2017-11-25T17:48:01.542Z,3.43
2017-11-25T17:50:29.316Z,3.63
2017-11-25T17:52:57.616Z,4.07
2017-11-25T17:55:25.905Z,4.53
2017-11-25T17:57:53.378Z,5.60
2017-11-25T18:00:20.917Z,6.27
2017-11-25T18:02:48.376Z,6.10
2017-11-25T18:05:16.622Z,5.90
2017-11-25T18:07:44.157Z,6.13
2017-11-25T18:10:11.642Z,7.70
2017-11-25T18:12:39.082Z,8.37
2017-11-25T18:15:06.568Z,8.40
2017-11-25T18:17:34.032Z,7.67
2017-11-25T18:20:01.510Z,7.87
2017-11-25T18:22:29.003Z,8.90
2017-11-25T18:24:56.465Z,10.20
2017-11-25T18:27:23.939Z,8.90
2017-11-25T18:29:51.444Z,8.57
2017-11-25T18:32:18.894Z,8.80
2017-11-25T18:34:46.357Z,8.57
2017-11-25T18:37:13.861Z,8.53
2017-11-25T18:39:41.345Z,8.93
2017-11-25T18:42:08.843Z,6.87
2017-11-25T18:44:36.287Z,7.70
2017-11-25T18:47:03.789Z,7.30
2017-11-25T18:49:31.250Z,6.80
2017-11-25T18:51:58.756Z,5.90
2017-11-25T18:54:26.202Z,4.67
2017-11-25T18:56:53.981Z,4.57
2017-11-25T18:59:21.427Z,4.07
2017-11-25T19:01:48.842Z,4.23
2017-11-25T19:04:16.292Z,4.30
2017-11-25T19:06:43.807Z,4.97
2017-11-25T19:09:11.441Z,5.33
2017-11-25T19:11:38.910Z,5.43
2017-11-25T19:14:06.376Z,4.80
2017-11-25T19:16:33.902Z,4.83
2017-11-25T19:19:01.412Z,4.43
2017-11-25T19:21:28.875Z,3.90
2017-11-25T19:23:56.365Z,3.07
2017-11-25T19:26:23.806Z,3.90
2017-11-25T19:28:51.275Z,3.90
2017-11-25T19:31:18.820Z,3.50
2017-11-25T19:33:46.235Z,3.40
2017-11-25T19:36:13.806Z,3.80
2017-11-25T19:38:41.235Z,2.97
2017-11-25T19:41:09.464Z,3.07
2017-11-25T19:43:36.984Z,3.37
2017-11-25T19:46:05.360Z,3.03
2017-11-25T19:48:32.835Z,3.80
2017-11-25T19:51:00.322Z,3.47
2017-11-25T19:53:27.813Z,4.27
2017-11-25T19:55:55.289Z,3.50
2017-11-25T19:58:22.756Z,4.80
2017-11-25T20:00:50.190Z,3.87
2017-11-25T20:03:18.413Z,3.47
2017-11-25T20:05:46.724Z,4.10
2017-11-25T20:08:14.217Z,4.03
2017-11-25T20:10:41.937Z,3.97
2017-11-25T20:13:10.211Z,5.00
2017-11-25T20:15:37.733Z,3.97
2017-11-25T20:18:05.166Z,4.90
2017-11-25T20:20:32.736Z,4.03
2017-11-25T20:23:00.956Z,4.97
2017-11-25T20:25:28.437Z,4.30
2017-11-25T20:27:56.688Z,3.97
2017-11-25T20:30:24.230Z,4.67
2017-11-25T20:32:52.414Z,5.20
2017-11-25T20:35:19.944Z,3.90
2017-11-25T20:37:47.448Z,3.57
2017-11-25T20:40:14.957Z,4.13
2017-11-25T20:42:42.418Z,4.13
2017-11-25T20:45:09.913Z,4.40
2017-11-25T20:47:37.433Z,4.70
2017-11-25T20:50:05.025Z,4.83
2017-11-25T20:52:32.521Z,3.80
2017-11-25T20:55:00.045Z,4.50
2017-11-25T20:57:27.580Z,4.00
2017-11-25T20:59:55.073Z,3.40
2017-11-25T21:02:23.314Z,3.50
2017-11-25T21:04:50.809Z,4.43
2017-11-25T21:07:19.129Z,4.07
2017-11-25T21:09:46.624Z,4.13
2017-11-25T21:12:14.113Z,4.10
2017-11-25T21:14:42.342Z,4.37
2017-11-25T21:17:09.872Z,5.00
2017-11-25T21:19:38.145Z,4.50
2017-11-25T21:22:06.982Z,4.90
2017-11-25T21:24:34.438Z,5.50
2017-11-25T21:27:02.666Z,4.50
2017-11-25T21:29:30.912Z,4.40
2017-11-25T21:31:58.422Z,4.97
2017-11-25T21:34:26.731Z,4.70
2017-11-25T21:36:54.189Z,5.90
2017-11-25T21:39:21.725Z,5.57
2017-11-25T21:41:49.198Z,5.10
2017-11-25T21:44:16.677Z,5.50
2017-11-25T21:46:44.143Z,5.63
2017-11-25T21:49:11.621Z,4.70
2017-11-25T21:51:39.087Z,4.83
2017-11-25T21:54:06.571Z,5.37
2017-11-25T21:56:34.275Z,5.83
2017-11-25T21:59:02.522Z,4.43
2017-11-25T22:01:30.012Z,6.37
2017-11-25T22:03:57.498Z,5.73
2017-11-25T22:06:24.944Z,5.77
2017-11-25T22:08:52.451Z,6.50
2017-11-25T22:11:20.203Z,6.17
2017-11-25T22:13:47.599Z,6.33
2017-11-25T22:16:15.080Z,6.10
2017-11-25T22:18:43.359Z,5.80
2017-11-25T22:21:11.659Z,5.70
2017-11-25T22:23:39.940Z,5.97
2017-11-25T22:26:08.190Z,4.97
2017-11-25T22:28:35.687Z,6.30
2017-11-25T22:31:03.936Z,5.30
2017-11-25T22:33:32.336Z,5.87
2017-11-25T22:36:00.584Z,6.17
2017-11-25T22:38:28.084Z,6.20
2017-11-25T22:40:56.371Z,6.90
2017-11-25T22:43:24.594Z,5.67
2017-11-25T22:45:52.169Z,5.73
2017-11-25T22:48:19.630Z,6.27
2017-11-25T22:50:47.149Z,6.47
2017-11-25T22:53:14.690Z,6.80
2017-11-25T22:55:42.183Z,6.63
2017-11-25T22:58:09.722Z,7.40
2017-11-25T23:00:37.219Z,7.93
2017-11-25T23:03:04.653Z,7.00
2017-11-25T23:05:32.891Z,6.87
2017-11-25T23:08:00.394Z,6.80
2017-11-25T23:10:28.659Z,6.97
2017-11-25T23:12:56.104Z,7.20
2017-11-25T23:15:23.619Z,6.50
2017-11-25T23:17:51.078Z,6.40
2017-11-25T23:20:18.635Z,7.90
2017-11-25T23:22:46.085Z,6.33
2017-11-25T23:25:14.370Z,6.97
2017-11-25T23:27:41.806Z,6.43
2017-11-25T23:30:09.303Z,7.33
2017-11-25T23:32:37.553Z,7.20
2017-11-25T23:35:05.068Z,7.23
2017-11-25T23:37:32.561Z,7.37
2017-11-25T23:40:00.765Z,7.27
2017-11-25T23:42:28.257Z,7.37
2017-11-25T23:44:55.752Z,7.03
2017-11-25T23:47:23.266Z,7.50
2017-11-25T23:49:51.563Z,8.10
2017-11-25T23:52:19.051Z,7.73
2017-11-25T23:54:46.549Z,8.33
2017-11-25T23:57:14.055Z,8.57
2017-11-25T23:59:41.554Z,9.60
